createdAt,value
2019-06-10T07:04:38.754Z,100970.90
2019-06-10T07:07:05.460Z,100972.00
2019-06-10T07:20:24.560Z,100968.09
2019-06-10T07:22:53.151Z,100961.89
2019-06-10T07:33:41.208Z,100946.39
2019-06-10T07:36:07.117Z,100946.13
2019-06-10T07:38:37.173Z,100947.67
2019-06-10T07:41:02.639Z,100951.34
2019-06-10T07:43:28.942Z,100945.11
2019-06-10T07:45:55.083Z,100943.09
2019-06-10T07:48:22.290Z,100944.59
2019-06-10T07:50:48.422Z,100941.39
2019-06-10T07:53:14.548Z,100939.34
2019-06-10T07:55:42.150Z,100937.61
2019-06-10T07:58:08.519Z,100941.53
2019-06-10T08:00:35.297Z,100934.69
2019-06-10T08:03:02.635Z,100936.72
2019-06-10T08:05:28.768Z,100933.67
2019-06-10T08:07:54.986Z,100932.86
2019-06-10T08:10:23.297Z,100924.31
2019-06-10T08:12:48.968Z,100921.05
2019-06-10T08:15:15.097Z,100918.58
2019-06-10T08:17:42.934Z,100925.55
2019-06-10T08:20:09.989Z,100922.80
2019-06-10T08:22:41.935Z,100922.80
2019-06-10T08:25:04.780Z,100919.85
2019-06-10T08:27:33.620Z,100915.41
2019-06-10T08:30:14.229Z,100914.11
2019-06-10T08:32:26.867Z,100915.56
2019-06-10T08:34:53.162Z,100917.46
2019-06-10T08:37:19.249Z,100909.78
2019-06-10T08:39:47.252Z,100909.52
2019-06-10T08:42:13.172Z,100908.26
2019-06-10T08:44:39.310Z,100898.09
2019-06-10T08:47:05.407Z,100898.52
2019-06-10T08:49:32.700Z,100898.52
2019-06-10T08:51:59.003Z,100898.70
2019-06-10T08:57:12.818Z,100892.56
2019-06-10T08:59:40.063Z,100895.28
2019-06-10T09:02:06.805Z,100891.73
2019-06-10T09:04:33.194Z,100886.11
2019-06-10T09:06:59.369Z,100879.03
2019-06-10T09:09:25.614Z,100886.34
2019-06-10T09:11:54.592Z,100901.04
2019-06-10T09:14:19.571Z,100899.02
2019-06-10T09:16:47.674Z,100881.95
2019-06-10T09:19:13.545Z,100883.59
2019-06-10T09:21:41.680Z,100867.30
2019-06-10T09:24:07.745Z,100875.29
2019-06-10T09:26:33.959Z,100871.05
2019-06-10T09:29:02.700Z,100859.96
2019-06-10T09:31:28.009Z,100870.13
2019-06-10T09:33:59.285Z,100869.62
2019-06-10T09:36:25.579Z,100867.72
2019-06-10T09:38:55.549Z,100862.61
2019-06-10T09:41:19.588Z,100862.67
2019-06-10T09:43:52.034Z,100861.17
2019-06-10T09:46:15.175Z,100869.03
2019-06-10T09:48:47.113Z,100855.16
2019-06-10T09:51:09.138Z,100861.36
2019-06-10T09:53:42.778Z,100859.30
2019-06-10T09:56:04.374Z,100870.03
2019-06-10T09:58:33.252Z,100871.05
2019-06-10T10:00:59.409Z,100870.23
2019-06-10T10:03:25.532Z,100865.45
2019-06-10T10:05:59.261Z,100858.31
2019-06-10T10:08:19.541Z,100850.94
2019-06-10T10:10:49.530Z,100850.28
2019-06-10T10:13:16.277Z,100852.50
2019-06-10T10:15:43.513Z,100837.17
2019-06-10T10:18:09.741Z,100823.97
2019-06-10T10:20:35.860Z,100822.77
2019-06-10T10:23:02.706Z,100830.27
2019-06-10T10:25:28.995Z,100840.23
2019-06-10T10:27:57.620Z,100834.21
2019-06-10T10:30:24.411Z,100840.91
2019-06-10T10:32:52.354Z,100824.47
2019-06-10T10:35:18.489Z,100816.52
2019-06-10T10:37:44.648Z,100807.77
2019-06-10T10:40:12.297Z,100805.87
2019-06-10T10:42:45.524Z,100804.92
2019-06-10T10:45:06.324Z,100812.50
2019-06-10T10:47:33.524Z,100802.34
2019-06-10T10:50:02.548Z,100813.62
2019-06-10T10:52:27.784Z,100811.03
2019-06-10T10:54:55.529Z,100807.08
2019-06-10T10:57:23.147Z,100803.42
2019-06-10T10:59:49.544Z,100801.21
2019-06-10T11:02:15.910Z,100809.91
2019-06-10T11:04:42.976Z,100817.97
2019-06-10T11:07:09.815Z,100812.05
2019-06-10T11:09:35.888Z,100807.00
2019-06-10T11:12:02.816Z,100806.09
2019-06-10T11:14:29.599Z,100801.14
2019-06-10T11:16:57.443Z,100799.25
2019-06-10T11:19:23.551Z,100798.63
2019-06-10T11:21:49.664Z,100791.40
2019-06-10T11:24:31.926Z,100779.28
2019-06-10T11:26:43.618Z,100783.38
2019-06-10T11:29:09.697Z,100773.11
2019-06-10T11:31:35.782Z,100778.00
2019-06-10T11:34:03.106Z,100774.30
2019-06-10T11:36:29.374Z,100774.32
2019-06-10T11:38:58.737Z,100773.07
2019-06-10T11:41:23.795Z,100771.84
2019-06-10T11:43:52.983Z,100766.88
2019-06-10T11:46:17.879Z,100761.91
2019-06-10T11:48:44.434Z,100746.41
2019-06-10T11:51:12.974Z,100746.73
2019-06-10T11:53:38.512Z,100733.69
2019-06-10T11:56:04.612Z,100727.97
2019-06-10T11:58:33.077Z,100725.05
2019-06-10T12:01:00.473Z,100721.51
2019-06-10T12:03:26.444Z,100721.62
2019-06-10T12:05:55.545Z,100720.20
2019-06-10T12:08:23.414Z,100725.80
2019-06-10T12:10:49.004Z,100721.70
2019-06-10T12:13:15.208Z,100731.44
2019-06-10T12:16:20.804Z,100730.12
2019-06-10T12:18:09.678Z,100722.03
2019-06-10T12:20:35.833Z,100732.79
2019-06-10T12:23:04.385Z,100724.32
2019-06-10T12:25:36.756Z,100719.49
2019-06-10T12:27:59.715Z,100715.52
2019-06-10T12:30:25.380Z,100718.23
2019-06-10T12:32:55.596Z,100709.80
2019-06-10T12:35:19.337Z,100703.36
2019-06-10T12:37:45.428Z,100701.75
2019-06-10T12:40:12.741Z,100696.85
2019-06-10T12:42:38.967Z,100693.56
2019-06-10T12:45:07.396Z,100697.38
2019-06-10T12:47:33.290Z,100692.55
2019-06-10T12:49:59.565Z,100687.33
2019-06-10T12:52:26.699Z,100692.68
2019-06-10T12:54:53.339Z,100685.98
2019-06-10T12:57:19.488Z,100682.69
2019-06-10T12:59:45.646Z,100681.64
2019-06-10T13:02:21.941Z,100677.37
2019-06-10T13:04:39.562Z,100677.56
2019-06-10T13:07:08.546Z,100680.78
2019-06-10T13:09:33.799Z,100675.41
2019-06-10T13:12:02.053Z,100668.22
2019-06-10T13:14:28.324Z,100667.73
2019-06-10T13:16:55.609Z,100663.08
2019-06-10T13:19:23.149Z,100672.00
2019-06-10T13:21:49.563Z,100668.42
2019-06-10T13:24:15.761Z,100667.09
2019-06-10T13:26:43.197Z,100668.17
2019-06-10T13:29:10.289Z,100659.14
2019-06-10T13:31:37.421Z,100654.60
2019-06-10T13:34:08.823Z,100651.91
2019-06-10T13:36:33.106Z,100646.80
2019-06-10T13:38:59.345Z,100632.47
2019-06-10T13:41:25.442Z,100632.77
2019-06-10T13:43:52.797Z,100634.92
2019-06-10T13:46:19.459Z,100647.78
2019-06-10T13:48:45.578Z,100652.22
2019-06-10T13:51:15.220Z,100646.58
2019-06-10T13:53:39.545Z,100635.39
2019-06-10T13:56:27.077Z,100634.86
2019-06-10T13:58:33.486Z,100632.41
2019-06-10T14:00:59.876Z,100627.08
2019-06-10T14:03:25.981Z,100629.99
2019-06-10T14:05:57.743Z,100615.25
2019-06-10T14:08:19.966Z,100607.94
2019-06-10T14:10:46.208Z,100595.86
2019-06-10T14:13:15.504Z,100600.22
2019-06-10T14:15:42.633Z,100592.83
2019-06-10T14:18:10.122Z,100582.28
2019-06-10T14:25:42.433Z,100573.15
2019-06-10T14:28:10.521Z,100581.23
2019-06-10T14:30:36.386Z,100579.39
2019-06-10T14:33:04.139Z,100579.22
2019-06-10T14:35:30.307Z,100572.54
2019-06-10T14:37:56.396Z,100580.66
2019-06-10T14:40:25.341Z,100579.26
2019-06-10T14:42:52.364Z,100583.70
2019-06-10T14:45:18.184Z,100594.69
2019-06-10T14:47:44.285Z,100602.41
2019-06-10T14:50:11.530Z,100592.50
2019-06-10T14:52:39.418Z,100600.55
2019-06-10T14:55:05.590Z,100602.50
2019-06-10T14:57:33.450Z,100606.48
2019-06-10T14:59:59.614Z,100609.53
2019-06-10T15:02:25.816Z,100600.44
2019-06-10T15:04:53.165Z,100598.11
2019-06-10T15:07:20.858Z,100594.19
2019-06-10T15:09:47.504Z,100596.91
2019-06-10T15:12:14.661Z,100594.66
2019-06-10T15:14:42.767Z,100590.86
2019-06-10T15:17:24.674Z,100592.02
2019-06-10T15:22:23.626Z,100597.64
2019-06-10T15:24:49.895Z,100593.47
2019-06-10T15:27:24.787Z,100588.17
2019-06-10T15:29:43.949Z,100591.77
2019-06-10T15:32:17.630Z,100585.33
2019-06-10T15:34:38.020Z,100583.43
2019-06-10T15:37:04.203Z,100574.30
2019-06-10T15:39:33.036Z,100568.08
2019-06-10T15:41:58.226Z,100568.17
2019-06-10T15:44:47.924Z,100567.02
2019-06-10T15:46:52.558Z,100563.06
2019-06-10T15:49:20.979Z,100550.23
2019-06-10T15:51:46.736Z,100546.96
2019-06-10T15:54:14.021Z,100538.00
2019-06-10T15:56:51.969Z,100533.42
2019-06-10T15:59:08.560Z,100526.54
2019-06-10T16:01:34.685Z,100526.52
2019-06-10T16:04:00.813Z,100535.03
2019-06-10T16:06:26.937Z,100541.47
2019-06-10T16:08:53.063Z,100542.37
2019-06-10T16:11:20.644Z,100536.47
2019-06-10T16:13:47.042Z,100534.89
2019-06-10T16:16:13.178Z,100530.82
2019-06-10T16:18:39.313Z,100533.68
2019-06-10T16:21:05.463Z,100542.06
2019-06-10T16:23:33.980Z,100537.69
2019-06-10T16:25:59.451Z,100542.54
2019-06-10T16:28:26.558Z,100541.03
2019-06-10T16:30:53.605Z,100550.25
2019-06-10T16:33:21.474Z,100560.14
2019-06-10T16:35:48.080Z,100567.13
2019-06-10T16:38:14.906Z,100565.38
2019-06-10T16:40:43.161Z,100564.02
2019-06-10T16:43:09.265Z,100558.51
2019-06-10T16:45:35.352Z,100562.53
2019-06-10T16:48:02.434Z,100575.24
2019-06-10T16:50:29.887Z,100571.85
2019-06-10T16:52:56.143Z,100574.69
2019-06-10T16:55:23.827Z,100576.02
2019-06-10T16:57:58.770Z,100577.73
2019-06-10T17:00:18.403Z,100574.53
2019-06-10T17:02:44.595Z,100574.38
2019-06-10T17:05:10.702Z,100578.05
2019-06-10T19:11:22.173Z,100595.67
2019-06-10T19:13:48.395Z,100607.88
2019-06-10T19:16:14.545Z,100615.86
2019-06-10T19:18:42.963Z,100627.98
2019-06-10T19:21:09.068Z,100628.08
2019-06-10T19:23:37.508Z,100625.70
2019-06-10T19:26:03.333Z,100625.02
2019-06-10T19:28:30.569Z,100631.34
2019-06-10T19:49:52.121Z,100684.93
